Time;durP1;ratioP1;P1;durP2;ratioP2;P2;SDS_P1;SDS_P2;PMS_P1;PMS_P2;Temp;Humidity;BMP_temperature;BMP_pressure;BME280_temperature;BME280_humidity;BME280_pressure;Samples;Min_cycle;Max_cycle;Signal;HPM_P1;HPM_P2
2023/06/08 00:00:31;;;;;;;;;;;;;;;22.09;57.26;100945.03;7401645;19;1857;-46
2023/06/08 00:03:04;;;;;;;;;;;;;;;22.04;57.58;100956.22;7401644;19;1320;-46
2023/06/08 00:05:43;;;;;;;;;;;;;;;21.96;57.49;100940.81;7400355;19;1521;-46
2023/06/08 00:08:11;;;;;;;;;;;;;;;22.00;57.50;100944.06;7401497;19;1517;-46
2023/06/08 00:10:43;;;;;;;;;;;;;;;22.00;57.27;100960.22;7402443;19;1845;-46
2023/06/08 00:13:11;;;;;;;;;;;;;;;21.92;57.67;100930.50;7402722;19;1360;-46
2023/06/08 00:15:40;;;;;;;;;;;;;;;21.97;57.60;100942.53;7401445;19;1522;-46
2023/06/08 00:18:09;;;;;;;;;;;;;;;21.97;57.70;100944.38;7399206;19;1520;-46
2023/06/08 00:20:39;;;;;;;;;;;;;;;21.91;57.88;100942.28;7400321;19;1494;-46
2023/06/08 00:23:07;;;;;;;;;;;;;;;21.93;57.63;100945.69;7400334;19;1480;-46
2023/06/08 00:25:35;;;;;;;;;;;;;;;21.97;57.70;100947.06;7397695;19;1361;-46
2023/06/08 00:28:09;;;;;;;;;;;;;;;21.90;57.50;100940.59;7398973;19;1499;-46
2023/06/08 00:30:37;;;;;;;;;;;;;;;21.91;57.74;100932.38;7400641;19;1857;-46
2023/06/08 00:33:06;;;;;;;;;;;;;;;21.87;57.68;100930.13;7400917;19;2009;-46
2023/06/08 00:35:34;;;;;;;;;;;;;;;21.89;57.48;100942.44;7399999;19;1854;-46
2023/06/08 00:38:02;;;;;;;;;;;;;;;21.90;57.50;100935.19;7399910;19;1570;-46
2023/06/08 00:40:30;;;;;;;;;;;;;;;21.88;57.71;100953.34;7400399;19;1399;-46
2023/06/08 00:42:59;;;;;;;;;;;;;;;21.85;57.72;100939.19;7400375;19;1673;-46
2023/06/08 00:45:30;;;;;;;;;;;;;;;21.86;58.13;100929.25;7396740;19;1641;-46
2023/06/08 00:47:58;;;;;;;;;;;;;;;21.83;58.00;100925.03;7398107;19;1495;-46
2023/06/08 00:50:26;;;;;;;;;;;;;;;21.82;58.04;100928.72;7400603;19;1857;-46
2023/06/08 00:52:54;;;;;;;;;;;;;;;21.81;58.04;100916.25;7401105;19;1860;-46
2023/06/08 00:55:24;;;;;;;;;;;;;;;21.79;58.05;100929.03;7399712;19;1609;-46
2023/06/08 00:57:53;;;;;;;;;;;;;;;21.81;57.69;100904.66;7400450;19;1544;-61
2023/06/08 01:00:22;;;;;;;;;;;;;;;21.94;57.65;100931.19;7399725;19;1455;-46
2023/06/08 01:02:55;;;;;;;;;;;;;;;21.85;57.71;100927.59;7399810;19;1454;-46
2023/06/08 01:05:23;;;;;;;;;;;;;;;21.82;57.71;100931.41;7399060;19;1747;-46
2023/06/08 01:07:57;;;;;;;;;;;;;;;21.82;57.97;100928.72;7399088;19;1540;-46
2023/06/08 01:10:30;;;;;;;;;;;;;;;21.80;57.74;100930.69;7399744;19;1852;-46
2023/06/08 01:13:02;;;;;;;;;;;;;;;21.81;57.62;100924.34;7399647;19;1818;-46
2023/06/08 01:15:34;;;;;;;;;;;;;;;21.84;57.93;100921.38;7398207;19;1873;-45
2023/06/08 01:18:07;;;;;;;;;;;;;;;21.82;57.75;100919.78;7395784;19;2032;-46
2023/06/08 01:20:41;;;;;;;;;;;;;;;21.71;58.11;100928.94;7398039;19;1328;-46
2023/06/08 01:23:22;;;;;;;;;;;;;;;21.72;57.88;100917.16;7399073;19;1719;-46
2023/06/08 01:25:55;;;;;;;;;;;;;;;21.71;58.11;100931.63;7396153;19;1794;-46
2023/06/08 01:28:24;;;;;;;;;;;;;;;21.71;58.03;100925.41;7398602;19;1517;-46
2023/06/08 01:30:52;;;;;;;;;;;;;;;21.77;57.82;100930.19;7398096;19;1845;-46
2023/06/08 01:33:22;;;;;;;;;;;;;;;21.68;57.85;100936.44;7400240;19;1027;-46
2023/06/08 01:35:57;;;;;;;;;;;;;;;21.72;57.92;100927.91;7398941;19;1443;-46
2023/06/08 01:38:30;;;;;;;;;;;;;;;21.76;57.69;100933.84;7398568;19;1525;-46
2023/06/08 01:41:02;;;;;;;;;;;;;;;21.68;57.62;100926.53;7396833;19;1704;-46
2023/06/08 01:43:32;;;;;;;;;;;;;;;21.73;57.81;100924.25;7398794;19;1466;-46
2023/06/08 01:46:02;;;;;;;;;;;;;;;21.69;57.52;100922.84;7399658;19;1313;-46
2023/06/08 01:48:31;;;;;;;;;;;;;;;21.74;57.58;100935.84;7395230;19;1524;-46
2023/06/08 01:51:00;;;;;;;;;;;;;;;21.72;57.61;100917.16;7397386;19;1824;-46
2023/06/08 01:53:29;;;;;;;;;;;;;;;21.69;57.73;100925.53;7397544;19;1440;-46
2023/06/08 01:55:57;;;;;;;;;;;;;;;21.72;57.46;100922.53;7398088;19;1708;-46
2023/06/08 01:58:28;;;;;;;;;;;;;;;21.68;57.44;100926.53;7399244;19;1060;-46
2023/06/08 02:00:56;;;;;;;;;;;;;;;21.68;57.49;100929.22;7398380;19;1337;-46
2023/06/08 02:03:25;;;;;;;;;;;;;;;21.65;57.70;100926.84;7398601;19;1941;-46
2023/06/08 02:05:53;;;;;;;;;;;;;;;21.62;57.40;100924.44;7397422;19;1869;-46
2023/06/08 02:08:21;;;;;;;;;;;;;;;21.65;57.42;100938.44;7398274;19;1497;-46
2023/06/08 02:10:50;;;;;;;;;;;;;;;21.67;57.43;100922.16;7396586;19;1818;-46
2023/06/08 02:13:18;;;;;;;;;;;;;;;21.67;57.53;100929.38;7397279;19;1250;-46
2023/06/08 02:15:50;;;;;;;;;;;;;;;21.64;57.40;100925.13;7396944;19;1860;-46
2023/06/08 02:18:19;;;;;;;;;;;;;;;21.69;57.15;100922.84;7395090;19;1968;-46
2023/06/08 02:20:47;;;;;;;;;;;;;;;21.62;57.61;100910.97;7396311;19;1377;-45
2023/06/08 02:23:16;;;;;;;;;;;;;;;21.67;57.46;100922.16;7396713;19;1335;-46
2023/06/08 02:25:44;;;;;;;;;;;;;;;21.65;57.52;100922.28;7395530;19;1607;-46
2023/06/08 02:28:12;;;;;;;;;;;;;;;21.62;57.44;100932.50;7397569;19;1182;-46
2023/06/08 02:30:40;;;;;;;;;;;;;;;21.63;57.83;100939.59;7398184;19;1857;-46
2023/06/08 02:33:11;;;;;;;;;;;;;;;21.60;57.87;100929.97;7397763;19;1623;-46
2023/06/08 02:35:40;;;;;;;;;;;;;;;21.58;57.53;100936.50;7397143;19;1861;-46
2023/06/08 02:38:08;;;;;;;;;;;;;;;21.60;57.55;100940.72;7393797;19;1901;-46
2023/06/08 02:40:36;;;;;;;;;;;;;;;21.58;58.00;100931.13;7396939;19;1586;-46
2023/06/08 02:43:05;;;;;;;;;;;;;;;21.45;57.81;100932.31;7397456;19;1757;-46
2023/06/08 02:45:33;;;;;;;;;;;;;;;21.36;56.87;100951.13;7394863;19;1865;-46
2023/06/08 02:48:01;;;;;;;;;;;;;;;21.29;56.44;100945.50;7391494;19;1574;-46
2023/06/08 02:50:32;;;;;;;;;;;;;;;21.24;55.88;100934.31;7397644;19;1336;-45
2023/06/08 02:53:00;;;;;;;;;;;;;;;21.26;55.30;100949.31;7396845;19;1838;-46
2023/06/08 02:55:34;;;;;;;;;;;;;;;21.24;54.64;100945.06;7396246;19;1509;-46
2023/06/08 02:58:03;;;;;;;;;;;;;;;21.19;54.28;100947.38;7395674;19;1913;-46
2023/06/08 03:00:32;;;;;;;;;;;;;;;21.20;54.11;100949.06;7395888;19;1486;-46
2023/06/08 03:03:01;;;;;;;;;;;;;;;21.36;55.58;100956.50;7396931;19;1767;-46
2023/06/08 03:05:34;;;;;;;;;;;;;;;21.54;56.12;100957.47;7395140;19;1544;-46
2023/06/08 03:08:02;;;;;;;;;;;;;;;21.55;56.31;100952.94;7395270;19;1767;-46
2023/06/08 03:10:30;;;;;;;;;;;;;;;21.53;55.99;100961.16;7396273;19;1004;-46
2023/06/08 03:12:59;;;;;;;;;;;;;;;21.59;56.17;100962.44;7393861;19;2166;-46
2023/06/08 03:15:29;;;;;;;;;;;;;;;21.63;56.03;100970.03;7394954;19;1605;-46
2023/06/08 03:17:57;;;;;;;;;;;;;;;21.57;56.27;100957.19;7392921;19;1867;-46
2023/06/08 03:20:26;;;;;;;;;;;;;;;21.61;55.93;100960.44;7395013;19;1391;-46
2023/06/08 03:22:57;;;;;;;;;;;;;;;21.59;56.38;100949.81;7398621;19;1432;-46
2023/06/08 03:25:25;;;;;;;;;;;;;;;21.61;56.22;100963.13;7399494;19;1337;-46
2023/06/08 03:27:53;;;;;;;;;;;;;;;21.59;56.19;100948.97;7401307;19;1147;-46
2023/06/08 03:30:22;;;;;;;;;;;;;;;21.61;55.91;100952.34;7403735;19;1950;-46
2023/06/08 03:32:51;;;;;;;;;;;;;;;21.63;56.31;100955.75;7399582;19;1855;-46
2023/06/08 03:35:20;;;;;;;;;;;;;;;21.58;56.08;100958.03;7403187;19;1817;-46
2023/06/08 03:37:48;;;;;;;;;;;;;;;21.58;56.23;100947.25;7402344;19;1364;-46
2023/06/08 03:40:19;;;;;;;;;;;;;;;21.68;56.06;100966.06;7403265;19;1533;-46
2023/06/08 03:42:50;;;;;;;;;;;;;;;21.59;56.14;100959.72;7403187;19;1019;-46
2023/06/08 03:45:19;;;;;;;;;;;;;;;21.60;56.20;100956.88;7403325;19;1349;-46
2023/06/08 03:47:47;;;;;;;;;;;;;;;21.62;56.28;100951.34;7400587;19;1475;-46
2023/06/08 03:50:15;;;;;;;;;;;;;;;21.57;56.29;100950.97;7403183;19;1081;-46
2023/06/08 03:52:44;;;;;;;;;;;;;;;21.65;56.10;100959.13;7400801;19;1861;-46
2023/06/08 03:55:12;;;;;;;;;;;;;;;21.72;56.25;100959.38;7401437;19;1448;-46
2023/06/08 03:57:43;;;;;;;;;;;;;;;21.78;56.06;100980.31;7401340;19;1340;-46
2023/06/08 04:00:13;;;;;;;;;;;;;;;21.73;56.36;100972.69;7402097;19;1810;-46
2023/06/08 04:02:41;;;;;;;;;;;;;;;21.80;55.93;100962.16;7401174;19;1450;-46
2023/06/08 04:05:10;;;;;;;;;;;;;;;21.97;55.65;100976.69;7401097;19;1819;-46
2023/06/08 04:07:38;;;;;;;;;;;;;;;22.07;55.38;100966.72;7399924;19;1576;-46
2023/06/08 04:10:07;;;;;;;;;;;;;;;22.15;55.18;100968.66;7402635;19;1428;-46
2023/06/08 04:12:35;;;;;;;;;;;;;;;22.22;54.95;100961.63;7398785;19;1852;-45
2023/06/08 04:15:07;;;;;;;;;;;;;;;22.30;55.00;100958.22;7401509;19;1531;-46
2023/06/08 04:17:40;;;;;;;;;;;;;;;22.24;55.04;100971.31;7400007;19;1560;-46
2023/06/08 04:20:09;;;;;;;;;;;;;;;22.26;54.79;100956.84;7401540;19;1692;-46
2023/06/08 04:22:38;;;;;;;;;;;;;;;22.27;55.16;100959.38;7402523;19;953;-46
2023/06/08 04:25:06;;;;;;;;;;;;;;;22.31;55.02;100958.06;7399311;19;1957;-46
2023/06/08 04:27:35;;;;;;;;;;;;;;;22.32;55.29;100953.53;7400205;19;1809;-46
2023/06/08 04:30:04;;;;;;;;;;;;;;;22.38;55.00;100944.81;7399585;19;1924;-46
2023/06/08 04:32:35;;;;;;;;;;;;;;;22.29;55.91;100956.53;7399654;19;1859;-46
2023/06/08 04:35:03;;;;;;;;;;;;;;;22.39;55.49;100954.63;7400180;19;1734;-46
2023/06/08 04:37:32;;;;;;;;;;;;;;;22.36;55.88;100966.56;7400344;19;1736;-46
2023/06/08 04:40:04;;;;;;;;;;;;;;;22.38;55.65;100955.59;7400733;19;1435;-46
2023/06/08 04:42:33;;;;;;;;;;;;;;;22.33;56.21;100958.78;7399320;19;1522;-45
2023/06/08 04:45:03;;;;;;;;;;;;;;;22.28;56.54;100958.38;7400489;19;1783;-46
2023/06/08 04:47:33;;;;;;;;;;;;;;;22.39;55.92;100946.53;7400867;19;1251;-46
2023/06/08 04:50:04;;;;;;;;;;;;;;;22.38;56.18;100951.09;7400178;19;1798;-46
2023/06/08 04:52:40;;;;;;;;;;;;;;;22.40;56.49;100951.78;7398654;19;1932;-46
2023/06/08 04:55:12;;;;;;;;;;;;;;;22.34;56.81;100956.91;7400180;19;1391;-46
2023/06/08 04:57:41;;;;;;;;;;;;;;;22.41;56.56;100949.91;7401048;19;1715;-46
2023/06/08 05:00:10;;;;;;;;;;;;;;;22.46;56.57;100953.00;7399423;19;1638;-46
2023/06/08 05:02:38;;;;;;;;;;;;;;;22.41;56.68;100958.00;7399176;19;1814;-46
2023/06/08 05:05:10;;;;;;;;;;;;;;;22.44;56.74;100957.69;7398831;19;1802;-46
2023/06/08 05:07:38;;;;;;;;;;;;;;;22.50;56.69;100957.09;7398706;19;1399;-46
2023/06/08 05:10:07;;;;;;;;;;;;;;;22.47;56.68;100957.38;7400186;19;1297;-46
2023/06/08 05:12:35;;;;;;;;;;;;;;;22.43;56.56;100950.63;7395966;19;1850;-46
2023/06/08 05:15:04;;;;;;;;;;;;;;;22.50;56.78;100965.19;7399393;19;1711;-46
2023/06/08 05:17:32;;;;;;;;;;;;;;;22.53;56.59;100964.84;7398814;19;1597;-46
2023/06/08 05:20:00;;;;;;;;;;;;;;;22.61;56.69;100973.00;7399320;19;1127;-46
2023/06/08 05:22:31;;;;;;;;;;;;;;;22.60;56.47;100968.63;7400416;19;2820;-46
2023/06/08 05:24:59;;;;;;;;;;;;;;;22.56;56.63;100963.69;7397074;19;1570;-45
2023/06/08 05:27:28;;;;;;;;;;;;;;;22.39;57.45;100979.72;7395635;19;1714;-46
2023/06/08 05:29:56;;;;;;;;;;;;;;;22.50;56.83;100981.34;7397891;19;1613;-46
2023/06/08 05:32:24;;;;;;;;;;;;;;;22.48;57.57;100972.53;7395005;19;1873;-46
2023/06/08 05:34:53;;;;;;;;;;;;;;;22.39;57.99;100986.94;7396860;19;1519;-46
2023/06/08 05:37:21;;;;;;;;;;;;;;;22.32;57.51;100986.72;7396475;19;1506;-53
2023/06/08 05:39:52;;;;;;;;;;;;;;;22.57;57.56;100982.41;7397724;19;1490;-46
2023/06/08 05:42:20;;;;;;;;;;;;;;;22.37;57.77;100988.97;7398241;19;1553;-46
2023/06/08 05:44:48;;;;;;;;;;;;;;;22.58;57.48;100988.63;7397568;19;1490;-46
2023/06/08 05:47:17;;;;;;;;;;;;;;;22.44;57.54;100990.88;7396666;19;1423;-46
2023/06/08 05:49:45;;;;;;;;;;;;;;;22.43;57.78;100985.66;7396730;19;1521;-46
2023/06/08 05:52:13;;;;;;;;;;;;;;;22.51;57.76;100992.97;7396938;19;1862;-46
2023/06/08 05:54:41;;;;;;;;;;;;;;;22.66;57.73;100998.66;7396726;19;1309;-46
2023/06/08 05:57:12;;;;;;;;;;;;;;;22.79;56.97;100991.03;7397611;19;1538;-45
2023/06/08 05:59:41;;;;;;;;;;;;;;;22.71;57.44;100989.13;7396952;19;1142;-46
2023/06/08 06:02:09;;;;;;;;;;;;;;;22.69;57.21;100980.34;7397034;19;1610;-45
2023/06/08 06:04:37;;;;;;;;;;;;;;;22.58;57.68;100972.47;7397069;19;1555;-46
2023/06/08 06:07:07;;;;;;;;;;;;;;;22.80;57.09;100987.31;7397452;19;1495;-46
2023/06/08 06:09:36;;;;;;;;;;;;;;;22.87;57.04;100983.00;7396520;19;1532;-46
2023/06/08 06:12:07;;;;;;;;;;;;;;;22.89;56.82;100970.22;7395616;19;1846;-46
2023/06/08 06:14:41;;;;;;;;;;;;;;;23.08;56.43;100984.53;7397624;19;1627;-46
2023/06/08 06:17:11;;;;;;;;;;;;;;;23.07;56.63;100982.88;7397486;19;1291;-46
2023/06/08 06:19:39;;;;;;;;;;;;;;;22.97;56.71;100981.06;7395466;19;1938;-46
2023/06/08 06:22:08;;;;;;;;;;;;;;;23.17;56.39;100989.00;7397162;19;1843;-45
2023/06/08 06:24:37;;;;;;;;;;;;;;;23.11;56.38;100989.63;7394971;19;1470;-46
2023/06/08 06:27:05;;;;;;;;;;;;;;;22.89;57.80;100991.78;7397310;19;1798;-46
2023/06/08 06:29:34;;;;;;;;;;;;;;;22.88;57.85;100987.41;7396828;19;1532;-46
2023/06/08 06:32:05;;;;;;;;;;;;;;;22.75;58.15;100977.00;7394022;19;1874;-46
2023/06/08 06:34:33;;;;;;;;;;;;;;;22.77;58.50;100977.72;7394834;19;1450;-46
2023/06/08 06:37:02;;;;;;;;;;;;;;;22.95;57.92;100985.78;7391865;19;1238;-46
2023/06/08 06:39:30;;;;;;;;;;;;;;;22.84;58.52;100959.06;7393099;19;1654;-46
2023/06/08 06:42:00;;;;;;;;;;;;;;;23.19;57.46;100987.84;7394546;19;1538;-46
2023/06/08 06:44:28;;;;;;;;;;;;;;;23.18;57.15;100975.38;7392029;19;1635;-46
2023/06/08 06:46:57;;;;;;;;;;;;;;;23.08;57.05;100979.16;7392137;19;1299;-48
2023/06/08 06:49:28;;;;;;;;;;;;;;;23.06;57.10;100975.75;7391077;19;1837;-46
2023/06/08 06:51:56;;;;;;;;;;;;;;;23.19;56.99;100968.13;7392401;19;1873;-46
2023/06/08 06:54:24;;;;;;;;;;;;;;;23.19;57.22;100968.13;7390579;19;1543;-46
2023/06/08 06:56:52;;;;;;;;;;;;;;;23.05;57.51;100968.69;7395555;19;1739;-46
2023/06/08 06:59:22;;;;;;;;;;;;;;;22.85;58.46;100952.66;7401473;19;1698;-46
2023/06/08 07:01:50;;;;;;;;;;;;;;;22.92;59.37;100972.63;7404974;19;1372;-46
2023/06/08 07:04:19;;;;;;;;;;;;;;;22.97;58.24;100956.78;7404406;19;1893;-46
2023/06/08 07:06:52;;;;;;;;;;;;;;;23.18;57.62;100950.25;7403341;19;1557;-46
2023/06/08 07:09:21;;;;;;;;;;;;;;;23.25;57.24;100967.47;7402913;19;1873;-46
2023/06/08 07:11:50;;;;;;;;;;;;;;;22.88;57.83;100938.00;7404009;19;1818;-46
2023/06/08 07:14:18;;;;;;;;;;;;;;;22.82;57.34;100947.59;7399366;19;1855;-46
2023/06/08 07:16:46;;;;;;;;;;;;;;;22.98;57.07;100954.97;7402774;19;1245;-46
2023/06/08 07:19:14;;;;;;;;;;;;;;;23.05;56.71;100944.41;7402608;19;1204;-46
2023/06/08 07:21:43;;;;;;;;;;;;;;;23.14;56.42;100946.16;7402063;19;1633;-46
2023/06/08 07:24:14;;;;;;;;;;;;;;;23.16;56.59;100954.97;7401294;19;1382;-46
2023/06/08 07:26:43;;;;;;;;;;;;;;;23.19;56.69;100949.22;7403061;19;1404;-46
2023/06/08 07:29:11;;;;;;;;;;;;;;;23.22;56.84;100948.94;7402121;19;1493;-46
2023/06/08 07:31:39;;;;;;;;;;;;;;;23.09;56.81;100949.31;7402502;19;1490;-47
2023/06/08 07:34:08;;;;;;;;;;;;;;;23.09;56.56;100953.88;7401576;19;1860;-46
2023/06/08 07:36:37;;;;;;;;;;;;;;;23.00;56.56;100952.97;7402783;19;1605;-46
2023/06/08 07:39:05;;;;;;;;;;;;;;;23.10;56.24;100944.78;7402812;19;1507;-46
2023/06/08 07:41:37;;;;;;;;;;;;;;;23.15;56.09;100932.50;7401411;19;1380;-46
2023/06/08 07:44:05;;;;;;;;;;;;;;;23.03;56.18;100949.97;7402155;19;1731;-46
2023/06/08 07:46:33;;;;;;;;;;;;;;;23.02;56.23;100934.81;7401239;19;1558;-46
2023/06/08 07:49:02;;;;;;;;;;;;;;;23.03;55.85;100940.00;7400700;19;1533;-46
2023/06/08 07:51:30;;;;;;;;;;;;;;;22.93;56.65;100939.25;7400345;19;1532;-45
2023/06/08 07:53:58;;;;;;;;;;;;;;;22.94;57.17;100940.94;7398930;19;1857;-45
2023/06/08 07:56:26;;;;;;;;;;;;;;;22.91;57.27;100941.25;7400084;19;1429;-46
2023/06/08 07:58:57;;;;;;;;;;;;;;;22.99;57.21;100944.00;7397567;19;1133;-46
2023/06/08 08:01:26;;;;;;;;;;;;;;;22.96;56.98;100957.81;7400364;19;1609;-46
2023/06/08 08:03:54;;;;;;;;;;;;;;;23.09;56.48;100952.03;7402956;19;1106;-46
2023/06/08 08:06:22;;;;;;;;;;;;;;;23.13;56.59;100949.88;7402535;19;1858;-46
2023/06/08 08:08:50;;;;;;;;;;;;;;;23.14;56.73;100940.75;7398010;19;1301;-46
2023/06/08 08:11:19;;;;;;;;;;;;;;;23.03;56.73;100937.31;7402122;19;1718;-46
2023/06/08 08:13:47;;;;;;;;;;;;;;;22.95;57.39;100947.19;7400046;19;1853;-46
2023/06/08 08:16:18;;;;;;;;;;;;;;;23.07;56.96;100950.50;7402830;19;1309;-46
2023/06/08 08:18:46;;;;;;;;;;;;;;;23.03;56.63;100950.81;7399897;19;1861;-46
2023/06/08 08:21:15;;;;;;;;;;;;;;;23.09;57.00;100940.41;7399740;19;1563;-46
2023/06/08 08:23:43;;;;;;;;;;;;;;;23.02;57.70;100937.50;7401617;19;1541;-46
2023/06/08 08:26:11;;;;;;;;;;;;;;;22.97;57.52;100946.00;7401087;19;1615;-46
2023/06/08 08:28:44;;;;;;;;;;;;;;;22.99;56.90;100938.59;7402382;19;1949;-46
2023/06/08 08:31:12;;;;;;;;;;;;;;;22.99;57.84;100949.41;7401212;19;1939;-46
2023/06/08 08:33:45;;;;;;;;;;;;;;;23.02;57.58;100943.72;7399236;19;1853;-46
2023/06/08 08:36:13;;;;;;;;;;;;;;;22.98;57.72;100947.72;7398235;19;1568;-46
2023/06/08 08:38:42;;;;;;;;;;;;;;;23.03;57.75;100940.00;7398417;19;1562;-46
2023/06/08 08:41:12;;;;;;;;;;;;;;;23.31;56.69;100937.16;7398231;19;1328;-46
2023/06/08 08:43:46;;;;;;;;;;;;;;;22.99;57.95;100926.97;7399983;19;1456;-46
2023/06/08 08:46:14;;;;;;;;;;;;;;;22.99;57.95;100929.69;7402103;19;1014;-46
2023/06/08 08:48:48;;;;;;;;;;;;;;;23.10;58.23;100923.19;7399277;19;1882;-46
2023/06/08 08:51:19;;;;;;;;;;;;;;;22.90;58.72;100927.91;7398671;19;1357;-46
2023/06/08 08:53:49;;;;;;;;;;;;;;;22.91;58.77;100924.22;7398601;19;1861;-46
2023/06/08 08:56:20;;;;;;;;;;;;;;;22.84;59.03;100929.41;7399738;19;1556;-46
2023/06/08 08:58:50;;;;;;;;;;;;;;;22.91;59.13;100937.72;7399936;19;1942;-46
2023/06/08 09:01:19;;;;;;;;;;;;;;;22.94;59.01;100924.75;7401534;19;1114;-46
2023/06/08 09:03:50;;;;;;;;;;;;;;;22.84;59.87;100924.03;6878959;19;9999579;-46
2023/06/08 09:06:18;;;;;;;;;;;;;;;22.93;59.71;100936.53;7390270;19;1774;-48
2023/06/08 09:08:46;;;;;;;;;;;;;;;22.87;59.89;100923.69;7392817;19;1600;-48
2023/06/08 09:11:15;;;;;;;;;;;;;;;22.92;59.78;100932.16;7391394;19;1571;-48
2023/06/08 09:13:43;;;;;;;;;;;;;;;23.12;59.08;100929.28;7394894;19;1841;-49
2023/06/08 09:16:14;;;;;;;;;;;;;;;23.01;59.11;100922.28;7396836;19;1602;-49
2023/06/08 09:18:42;;;;;;;;;;;;;;;22.91;59.88;100908.06;7398513;19;1815;-49
2023/06/08 09:21:26;;;;;;;;;;;;;;;22.99;59.50;100925.13;7395201;19;1567;-49
2023/06/08 09:24:08;;;;;;;;;;;;;;;22.97;59.59;100919.03;7395723;19;1423;-49
2023/06/08 09:26:37;;;;;;;;;;;;;;;22.97;59.81;100912.81;7396556;19;1291;-49
2023/06/08 09:29:06;;;;;;;;;;;;;;;23.17;59.67;100921.56;7397566;19;1470;-48
2023/06/08 09:31:39;;;;;;;;;;;;;;;23.11;59.73;100903.31;7396992;19;1430;-49
2023/06/08 09:34:08;;;;;;;;;;;;;;;23.18;60.21;100923.28;7397630;19;1865;-48
2023/06/08 09:36:39;;;;;;;;;;;;;;;22.86;62.81;100904.97;7397029;19;1223;-49
2023/06/08 09:39:08;;;;;;;;;;;;;;;22.79;61.82;100910.16;7394557;19;1951;-50
2023/06/08 09:41:37;;;;;;;;;;;;;;;22.65;62.72;100903.47;7394353;19;1617;-49
2023/06/08 09:44:17;;;;;;;;;;;;;;;22.92;61.67;100891.72;7395058;19;1503;-49
2023/06/08 09:46:48;;;;;;;;;;;;;;;22.88;62.17;100887.66;7394472;19;1301;-53
2023/06/08 09:49:16;;;;;;;;;;;;;;;22.90;62.24;100885.63;7396088;19;1229;-50
2023/06/08 09:51:51;;;;;;;;;;;;;;;22.97;62.05;100883.97;7395451;19;1267;-50
2023/06/08 09:54:20;;;;;;;;;;;;;;;23.03;61.90;100890.63;7395023;19;1845;-50
2023/06/08 09:56:49;;;;;;;;;;;;;;;22.77;62.57;100879.81;7395918;19;1587;-50
2023/06/08 09:59:19;;;;;;;;;;;;;;;23.08;61.58;100877.53;7396384;19;1579;-50
2023/06/08 10:01:51;;;;;;;;;;;;;;;23.16;61.29;100879.41;7393948;19;1284;-49
2023/06/08 10:04:31;;;;;;;;;;;;;;;23.16;61.33;100879.41;7396425;19;1688;-50
2023/06/08 10:07:04;;;;;;;;;;;;;;;22.80;62.52;100880.34;7395853;19;1252;-47
2023/06/08 10:09:34;;;;;;;;;;;;;;;22.73;62.55;100864.94;7392664;19;1617;-47
2023/06/08 10:12:03;;;;;;;;;;;;;;;22.82;62.18;100850.53;7393742;19;1496;-47
2023/06/08 10:14:31;;;;;;;;;;;;;;;22.80;61.99;100863.28;7394701;19;1859;-47
2023/06/08 10:17:00;;;;;;;;;;;;;;;22.78;62.09;100841.03;7396056;19;1094;-47
2023/06/08 10:19:28;;;;;;;;;;;;;;;22.77;62.21;100872.56;7396698;19;1514;-47
2023/06/08 10:21:59;;;;;;;;;;;;;;;22.72;61.90;100849.75;7396550;19;1423;-47
2023/06/08 10:24:30;;;;;;;;;;;;;;;22.64;62.05;100854.13;7395679;19;1635;-47
2023/06/08 10:27:10;;;;;;;;;;;;;;;22.73;62.58;100840.69;7396573;19;1751;-47
2023/06/08 10:29:38;;;;;;;;;;;;;;;22.66;62.19;100839.63;7397090;19;1806;-47
2023/06/08 10:32:08;;;;;;;;;;;;;;;22.74;61.92;100850.44;7395087;19;1690;-47
2023/06/08 10:34:40;;;;;;;;;;;;;;;22.60;62.28;100851.88;7393578;19;1857;-48
2023/06/08 10:37:08;;;;;;;;;;;;;;;22.71;61.95;100837.31;7396390;19;1035;-51
2023/06/08 10:39:49;;;;;;;;;;;;;;;22.60;61.83;100841.97;7396343;19;1502;-47
2023/06/08 10:42:19;;;;;;;;;;;;;;;22.55;62.07;100817.31;7394767;19;1962;-47
2023/06/08 10:44:55;;;;;;;;;;;;;;;22.42;62.19;100814.19;7395740;19;1529;-47
2023/06/08 10:47:23;;;;;;;;;;;;;;;22.78;61.24;100811.38;6878656;19;9999787;-47
2023/06/08 10:49:57;;;;;;;;;;;;;;;22.62;61.82;100813.00;7387836;19;1870;-47
2023/06/08 10:52:26;;;;;;;;;;;;;;;22.68;61.35;100810.66;7388779;19;1584;-47
2023/06/08 10:54:59;;;;;;;;;;;;;;;22.62;61.71;100823.78;7388422;19;1858;-47
2023/06/08 10:57:38;;;;;;;;;;;;;;;22.60;61.42;100816.84;7388988;19;1620;-47
2023/06/08 11:00:22;;;;;;;;;;;;;;;22.58;61.75;100806.22;7387866;19;1517;-47
2023/06/08 11:02:50;;;;;;;;;;;;;;;22.58;61.74;100814.31;7388081;19;1455;-47
2023/06/08 11:05:18;;;;;;;;;;;;;;;22.57;61.42;100785.66;7387823;19;1869;-47
2023/06/08 11:07:47;;;;;;;;;;;;;;;22.56;61.45;100788.50;7389449;19;1592;-47
2023/06/08 11:10:18;;;;;;;;;;;;;;;22.55;61.54;100787.66;7389478;19;1771;-47
2023/06/08 11:12:46;;;;;;;;;;;;;;;22.53;61.82;100803.16;7388520;19;1474;-47
2023/06/08 11:15:14;;;;;;;;;;;;;;;22.52;61.69;100796.09;7386839;19;1863;-47
2023/06/08 11:17:46;;;;;;;;;;;;;;;22.53;61.52;100797.75;7388260;19;1559;-47
2023/06/08 11:20:17;;;;;;;;;;;;;;;22.53;61.68;100784.28;7389335;19;1284;-48
2023/06/08 11:22:45;;;;;;;;;;;;;;;22.58;61.90;100814.31;7386933;19;1741;-47
2023/06/08 11:25:13;;;;;;;;;;;;;;;22.54;61.39;100772.53;7387730;19;1716;-47
2023/06/08 11:27:47;;;;;;;;;;;;;;;22.56;61.58;100770.50;7388255;19;1830;-47
2023/06/08 11:30:19;;;;;;;;;;;;;;;22.54;61.64;100774.34;7388891;19;1920;-47
2023/06/08 11:32:48;;;;;;;;;;;;;;;22.56;61.63;100775.91;7388105;19;1498;-47
2023/06/08 11:35:17;;;;;;;;;;;;;;;22.57;61.78;100777.56;7384882;19;1859;-47
2023/06/08 11:37:45;;;;;;;;;;;;;;;22.54;61.81;100767.13;7387331;19;1404;-47
2023/06/08 11:40:15;;;;;;;;;;;;;;;22.54;61.74;100760.88;7388446;19;1704;-47
2023/06/08 11:42:44;;;;;;;;;;;;;;;22.51;61.73;100764.75;7389228;19;1497;-47
2023/06/08 11:45:15;;;;;;;;;;;;;;;22.51;61.77;100756.66;7394020;19;1822;-46
2023/06/08 11:47:44;;;;;;;;;;;;;;;22.52;62.02;100769.13;7392295;19;2306;-46
2023/06/08 11:50:16;;;;;;;;;;;;;;;22.56;61.88;100762.44;7396743;19;1549;-47
2023/06/08 11:52:44;;;;;;;;;;;;;;;22.51;62.06;100751.25;7395279;19;1900;-47
2023/06/08 11:55:16;;;;;;;;;;;;;;;22.51;62.13;100753.13;7393201;19;1861;-47
2023/06/08 11:57:46;;;;;;;;;;;;;;;22.51;61.82;100751.25;7394607;19;1380;-47
2023/06/08 12:00:22;;;;;;;;;;;;;;;22.51;62.01;100755.81;7393489;19;1557;-48
2023/06/08 12:02:51;;;;;;;;;;;;;;;22.51;61.82;100763.91;7397348;19;1458;-46
2023/06/08 12:05:20;;;;;;;;;;;;;;;22.51;62.01;100755.81;7399835;19;1818;-47
2023/06/08 12:07:59;;;;;;;;;;;;;;;22.50;62.03;100743.34;7399425;19;1798;-47
2023/06/08 12:10:36;;;;;;;;;;;;;;;22.55;61.64;100757.19;7402250;19;1046;-46
2023/06/08 12:13:07;;;;;;;;;;;;;;;22.56;61.69;100759.72;7401223;19;1865;-46
2023/06/08 12:15:39;;;;;;;;;;;;;;;22.53;61.98;100749.25;7399099;19;1886;-47
2023/06/08 12:18:07;;;;;;;;;;;;;;;22.51;61.90;100748.56;7398853;19;1977;-47
2023/06/08 12:20:36;;;;;;;;;;;;;;;22.54;61.91;100739.31;7400961;19;1821;-47
2023/06/08 12:23:05;;;;;;;;;;;;;;;22.53;61.95;100743.88;7400334;19;1435;-47
2023/06/08 12:25:34;;;;;;;;;;;;;;;22.51;61.95;100737.78;7398300;19;1906;-46
2023/06/08 12:28:02;;;;;;;;;;;;;;;22.54;61.78;100740.19;7399030;19;1376;-48
2023/06/08 12:30:31;;;;;;;;;;;;;;;22.66;61.38;100731.81;7400574;19;1798;-47
2023/06/08 12:33:02;;;;;;;;;;;;;;;22.61;61.43;100730.44;7401893;19;1727;-46
2023/06/08 12:35:30;;;;;;;;;;;;;;;22.65;61.57;100730.97;7399182;19;1861;-47
2023/06/08 12:37:58;;;;;;;;;;;;;;;22.72;61.39;100741.94;7401983;19;1042;-47
2023/06/08 12:40:27;;;;;;;;;;;;;;;22.72;61.26;100720.38;7401037;19;1826;-46
2023/06/08 12:42:55;;;;;;;;;;;;;;;22.67;61.50;100723.56;7400126;19;1802;-47
2023/06/08 12:45:24;;;;;;;;;;;;;;;22.83;61.03;100718.25;7400843;19;1798;-46
2023/06/08 12:47:52;;;;;;;;;;;;;;;22.91;60.73;100711.19;7399958;19;1407;-47
2023/06/08 12:50:28;;;;;;;;;;;;;;;22.93;60.92;100711.88;7399114;19;1114;-46
2023/06/08 12:52:57;;;;;;;;;;;;;;;22.95;60.67;100713.41;7399295;19;1189;-46
2023/06/08 12:55:25;;;;;;;;;;;;;;;22.91;61.06;100703.94;7398644;19;1846;-47
2023/06/08 12:57:53;;;;;;;;;;;;;;;22.92;61.06;100699.38;7397304;19;1526;-46